sensor_id;sensor_type;location;lat;lon;timestamp;temperature;humidity
774;DHT22;370;48.810;9.150;2023-11-21T00:00:15;8.30;59.30
774;DHT22;370;48.810;9.150;2023-11-21T00:02:43;8.30;60.40
774;DHT22;370;48.810;9.150;2023-11-21T00:05:12;8.30;59.70
774;DHT22;370;48.810;9.150;2023-11-21T00:07:40;8.30;59.80
774;DHT22;370;48.810;9.150;2023-11-21T00:10:08;8.30;59.00
774;DHT22;370;48.810;9.150;2023-11-21T00:12:36;8.30;58.00
774;DHT22;370;48.810;9.150;2023-11-21T00:15:03;8.20;57.80
774;DHT22;370;48.810;9.150;2023-11-21T00:17:31;8.20;57.70
774;DHT22;370;48.810;9.150;2023-11-21T00:19:57;8.20;58.10
774;DHT22;370;48.810;9.150;2023-11-21T00:22:25;8.20;58.20
774;DHT22;370;48.810;9.150;2023-11-21T00:24:52;8.20;59.70
774;DHT22;370;48.810;9.150;2023-11-21T00:27:19;8.20;58.40
774;DHT22;370;48.810;9.150;2023-11-21T00:29:46;8.10;59.60
774;DHT22;370;48.810;9.150;2023-11-21T00:32:13;8.20;59.70
774;DHT22;370;48.810;9.150;2023-11-21T00:34:39;8.10;59.60
774;DHT22;370;48.810;9.150;2023-11-21T00:37:06;8.20;59.70
774;DHT22;370;48.810;9.150;2023-11-21T00:39:34;8.20;59.70
774;DHT22;370;48.810;9.150;2023-11-21T00:42:01;8.20;59.70
774;DHT22;370;48.810;9.150;2023-11-21T00:44:30;8.30;59.80
774;DHT22;370;48.810;9.150;2023-11-21T00:46:57;8.30;59.30
774;DHT22;370;48.810;9.150;2023-11-21T00:49:23;8.30;59.20
774;DHT22;370;48.810;9.150;2023-11-21T00:51:50;8.40;57.70
774;DHT22;370;48.810;9.150;2023-11-21T00:54:17;8.40;58.20
774;DHT22;370;48.810;9.150;2023-11-21T00:56:45;8.40;58.30
774;DHT22;370;48.810;9.150;2023-11-21T00:59:12;8.30;58.40
774;DHT22;370;48.810;9.150;2023-11-21T01:01:39;8.40;59.80
774;DHT22;370;48.810;9.150;2023-11-21T01:04:06;8.40;58.00
774;DHT22;370;48.810;9.150;2023-11-21T01:06:33;8.40;59.00
774;DHT22;370;48.810;9.150;2023-11-21T01:09:00;8.40;59.10
774;DHT22;370;48.810;9.150;2023-11-21T01:11:26;8.40;59.80
774;DHT22;370;48.810;9.150;2023-11-21T01:13:54;8.50;58.20
774;DHT22;370;48.810;9.150;2023-11-21T01:16:21;8.50;57.60
774;DHT22;370;48.810;9.150;2023-11-21T01:18:49;8.50;56.60
774;DHT22;370;48.810;9.150;2023-11-21T01:21:16;8.60;55.10
774;DHT22;370;48.810;9.150;2023-11-21T01:23:43;8.60;54.40
774;DHT22;370;48.810;9.150;2023-11-21T01:26:10;8.60;54.50
774;DHT22;370;48.810;9.150;2023-11-21T01:28:37;8.70;56.70
774;DHT22;370;48.810;9.150;2023-11-21T01:31:05;8.60;55.40
774;DHT22;370;48.810;9.150;2023-11-21T01:33:32;8.70;56.60
774;DHT22;370;48.810;9.150;2023-11-21T01:35:59;8.60;54.40
774;DHT22;370;48.810;9.150;2023-11-21T01:38:26;8.60;53.10
774;DHT22;370;48.810;9.150;2023-11-21T01:40:53;8.60;53.20
774;DHT22;370;48.810;9.150;2023-11-21T01:43:20;8.70;53.40
774;DHT22;370;48.810;9.150;2023-11-21T01:45:47;8.70;52.10
774;DHT22;370;48.810;9.150;2023-11-21T01:48:15;8.70;52.00
774;DHT22;370;48.810;9.150;2023-11-21T01:50:42;8.70;51.30
774;DHT22;370;48.810;9.150;2023-11-21T01:53:10;8.70;50.50
774;DHT22;370;48.810;9.150;2023-11-21T01:55:40;8.70;49.20
774;DHT22;370;48.810;9.150;2023-11-21T01:58:06;8.70;49.40
774;DHT22;370;48.810;9.150;2023-11-21T02:00:33;8.70;50.00
774;DHT22;370;48.810;9.150;2023-11-21T02:03:00;8.70;50.50
774;DHT22;370;48.810;9.150;2023-11-21T02:05:29;8.70;49.10
774;DHT22;370;48.810;9.150;2023-11-21T02:07:56;8.80;48.10
774;DHT22;370;48.810;9.150;2023-11-21T02:10:24;8.80;47.50
774;DHT22;370;48.810;9.150;2023-11-21T02:12:51;8.80;45.60
774;DHT22;370;48.810;9.150;2023-11-21T02:15:18;8.80;45.60
774;DHT22;370;48.810;9.150;2023-11-21T02:17:46;8.80;45.60
774;DHT22;370;48.810;9.150;2023-11-21T02:20:17;8.80;46.20
774;DHT22;370;48.810;9.150;2023-11-21T02:22:49;8.80;46.10
774;DHT22;370;48.810;9.150;2023-11-21T02:25:17;8.80;46.30
774;DHT22;370;48.810;9.150;2023-11-21T02:27:44;8.80;45.90
774;DHT22;370;48.810;9.150;2023-11-21T02:30:14;8.90;45.20
774;DHT22;370;48.810;9.150;2023-11-21T02:32:41;8.90;43.80
774;DHT22;370;48.810;9.150;2023-11-21T02:35:09;8.90;43.60
774;DHT22;370;48.810;9.150;2023-11-21T02:37:37;8.80;42.70
774;DHT22;370;48.810;9.150;2023-11-21T02:40:08;8.90;42.80
774;DHT22;370;48.810;9.150;2023-11-21T02:42:35;8.90;42.50
774;DHT22;370;48.810;9.150;2023-11-21T02:45:02;8.90;43.60
774;DHT22;370;48.810;9.150;2023-11-21T02:47:31;8.90;40.70
774;DHT22;370;48.810;9.150;2023-11-21T02:49:57;8.90;40.80
774;DHT22;370;48.810;9.150;2023-11-21T02:52:24;8.80;40.30
774;DHT22;370;48.810;9.150;2023-11-21T02:54:51;8.90;41.20
774;DHT22;370;48.810;9.150;2023-11-21T02:57:19;8.80;40.60
774;DHT22;370;48.810;9.150;2023-11-21T02:59:46;8.90;40.80
774;DHT22;370;48.810;9.150;2023-11-21T03:02:13;8.80;40.60
774;DHT22;370;48.810;9.150;2023-11-21T03:04:41;8.90;40.30
774;DHT22;370;48.810;9.150;2023-11-21T03:07:09;8.90;38.00
774;DHT22;370;48.810;9.150;2023-11-21T03:09:35;8.80;39.50
774;DHT22;370;48.810;9.150;2023-11-21T03:12:03;8.80;40.10
774;DHT22;370;48.810;9.150;2023-11-21T03:14:31;8.80;40.60
774;DHT22;370;48.810;9.150;2023-11-21T03:16:57;8.80;41.10
774;DHT22;370;48.810;9.150;2023-11-21T03:19:24;8.70;42.60
774;DHT22;370;48.810;9.150;2023-11-21T03:21:51;8.70;43.10
774;DHT22;370;48.810;9.150;2023-11-21T03:24:19;8.60;42.70
774;DHT22;370;48.810;9.150;2023-11-21T03:26:48;8.60;43.30
774;DHT22;370;48.810;9.150;2023-11-21T03:29:15;8.70;43.80
774;DHT22;370;48.810;9.150;2023-11-21T03:31:43;8.70;44.80
774;DHT22;370;48.810;9.150;2023-11-21T03:34:15;8.70;45.40
774;DHT22;370;48.810;9.150;2023-11-21T03:36:42;8.80;44.10
774;DHT22;370;48.810;9.150;2023-11-21T03:39:09;8.70;43.40
774;DHT22;370;48.810;9.150;2023-11-21T03:41:36;8.80;43.70
774;DHT22;370;48.810;9.150;2023-11-21T03:44:03;8.80;42.70
774;DHT22;370;48.810;9.150;2023-11-21T03:46:30;8.80;40.60
774;DHT22;370;48.810;9.150;2023-11-21T03:48:58;8.80;40.40
774;DHT22;370;48.810;9.150;2023-11-21T03:51:25;8.80;39.80
774;DHT22;370;48.810;9.150;2023-11-21T03:53:51;8.80;38.50
774;DHT22;370;48.810;9.150;2023-11-21T03:56:19;8.80;38.40
774;DHT22;370;48.810;9.150;2023-11-21T03:58:47;8.80;37.50
774;DHT22;370;48.810;9.150;2023-11-21T04:01:19;8.80;39.50
774;DHT22;370;48.810;9.150;2023-11-21T04:03:47;8.90;40.00
774;DHT22;370;48.810;9.150;2023-11-21T04:06:15;8.90;38.60
774;DHT22;370;48.810;9.150;2023-11-21T04:08:42;8.80;36.70
774;DHT22;370;48.810;9.150;2023-11-21T04:11:09;8.80;40.60
774;DHT22;370;48.810;9.150;2023-11-21T04:13:37;8.90;37.90
774;DHT22;370;48.810;9.150;2023-11-21T04:16:05;8.90;39.60
774;DHT22;370;48.810;9.150;2023-11-21T04:18:31;8.90;42.90
774;DHT22;370;48.810;9.150;2023-11-21T04:20:59;8.70;46.80
774;DHT22;370;48.810;9.150;2023-11-21T04:23:28;8.70;50.50
774;DHT22;370;48.810;9.150;2023-11-21T04:25:55;8.70;50.50
774;DHT22;370;48.810;9.150;2023-11-21T04:28:23;8.60;50.80
774;DHT22;370;48.810;9.150;2023-11-21T04:30:50;8.60;51.70
774;DHT22;370;48.810;9.150;2023-11-21T04:33:16;8.50;52.50
774;DHT22;370;48.810;9.150;2023-11-21T04:35:43;8.40;52.30
774;DHT22;370;48.810;9.150;2023-11-21T04:38:10;8.30;52.70
774;DHT22;370;48.810;9.150;2023-11-21T04:40:38;8.20;54.30
774;DHT22;370;48.810;9.150;2023-11-21T04:43:05;8.20;55.10
774;DHT22;370;48.810;9.150;2023-11-21T04:45:31;8.20;56.00
774;DHT22;370;48.810;9.150;2023-11-21T04:47:58;8.10;55.00
774;DHT22;370;48.810;9.150;2023-11-21T04:50:25;8.10;53.80
774;DHT22;370;48.810;9.150;2023-11-21T04:52:52;7.90;53.40
774;DHT22;370;48.810;9.150;2023-11-21T04:55:20;7.90;55.80
774;DHT22;370;48.810;9.150;2023-11-21T04:57:48;7.90;55.10
774;DHT22;370;48.810;9.150;2023-11-21T05:00:15;7.90;56.70
774;DHT22;370;48.810;9.150;2023-11-21T05:02:42;7.80;55.00
774;DHT22;370;48.810;9.150;2023-11-21T05:05:10;7.70;56.90
774;DHT22;370;48.810;9.150;2023-11-21T05:07:36;7.70;58.60
774;DHT22;370;48.810;9.150;2023-11-21T05:10:04;7.60;59.20
774;DHT22;370;48.810;9.150;2023-11-21T05:12:34;7.60;61.70
774;DHT22;370;48.810;9.150;2023-11-21T05:15:04;7.70;64.30
774;DHT22;370;48.810;9.150;2023-11-21T05:17:35;7.70;65.10
774;DHT22;370;48.810;9.150;2023-11-21T05:20:02;7.80;65.90
774;DHT22;370;48.810;9.150;2023-11-21T05:22:34;7.90;66.20
774;DHT22;370;48.810;9.150;2023-11-21T05:25:01;7.90;65.90
774;DHT22;370;48.810;9.150;2023-11-21T05:27:28;7.90;63.80
774;DHT22;370;48.810;9.150;2023-11-21T05:29:55;7.90;63.80
774;DHT22;370;48.810;9.150;2023-11-21T05:32:23;8.00;63.40
774;DHT22;370;48.810;9.150;2023-11-21T05:34:50;8.00;64.00
774;DHT22;370;48.810;9.150;2023-11-21T05:37:17;8.00;62.30
774;DHT22;370;48.810;9.150;2023-11-21T05:39:44;8.00;63.20
774;DHT22;370;48.810;9.150;2023-11-21T05:42:11;8.10;64.00
774;DHT22;370;48.810;9.150;2023-11-21T05:44:41;8.10;61.70
774;DHT22;370;48.810;9.150;2023-11-21T05:47:08;8.20;62.20
774;DHT22;370;48.810;9.150;2023-11-21T05:49:36;8.30;59.80
774;DHT22;370;48.810;9.150;2023-11-21T05:52:04;8.40;59.80
774;DHT22;370;48.810;9.150;2023-11-21T05:54:31;8.50;58.00
774;DHT22;370;48.810;9.150;2023-11-21T05:56:58;8.50;55.90
774;DHT22;370;48.810;9.150;2023-11-21T05:59:25;8.50;54.10
774;DHT22;370;48.810;9.150;2023-11-21T06:01:52;8.50;53.90
774;DHT22;370;48.810;9.150;2023-11-21T06:04:20;8.50;52.10
774;DHT22;370;48.810;9.150;2023-11-21T06:06:51;8.50;52.60
774;DHT22;370;48.810;9.150;2023-11-21T06:09:18;8.50;51.50
774;DHT22;370;48.810;9.150;2023-11-21T06:11:45;8.50;51.30
774;DHT22;370;48.810;9.150;2023-11-21T06:14:11;8.50;50.30
774;DHT22;370;48.810;9.150;2023-11-21T06:16:38;8.50;50.30
774;DHT22;370;48.810;9.150;2023-11-21T06:19:05;8.50;50.70
774;DHT22;370;48.810;9.150;2023-11-21T06:21:32;8.60;50.40
774;DHT22;370;48.810;9.150;2023-11-21T06:24:00;8.60;50.40
774;DHT22;370;48.810;9.150;2023-11-21T06:26:27;8.70;50.50
774;DHT22;370;48.810;9.150;2023-11-21T06:28:54;8.70;49.00
774;DHT22;370;48.810;9.150;2023-11-21T06:31:22;8.70;48.10
774;DHT22;370;48.810;9.150;2023-11-21T06:33:49;8.70;49.30
774;DHT22;370;48.810;9.150;2023-11-21T06:36:17;8.70;47.90
774;DHT22;370;48.810;9.150;2023-11-21T06:38:44;8.80;47.30
774;DHT22;370;48.810;9.150;2023-11-21T06:41:12;8.80;46.20
774;DHT22;370;48.810;9.150;2023-11-21T06:43:40;8.80;46.50
774;DHT22;370;48.810;9.150;2023-11-21T06:46:10;8.80;46.30
774;DHT22;370;48.810;9.150;2023-11-21T06:48:40;8.90;46.30
774;DHT22;370;48.810;9.150;2023-11-21T06:51:07;8.90;45.50
774;DHT22;370;48.810;9.150;2023-11-21T06:53:33;9.00;45.20
774;DHT22;370;48.810;9.150;2023-11-21T06:56:00;8.90;44.60
774;DHT22;370;48.810;9.150;2023-11-21T06:58:28;9.00;43.90
774;DHT22;370;48.810;9.150;2023-11-21T07:00:55;8.90;42.80
774;DHT22;370;48.810;9.150;2023-11-21T07:03:23;8.80;44.10
774;DHT22;370;48.810;9.150;2023-11-21T07:05:51;8.70;45.60
774;DHT22;370;48.810;9.150;2023-11-21T07:08:18;8.60;45.50
774;DHT22;370;48.810;9.150;2023-11-21T07:10:45;8.60;47.60
774;DHT22;370;48.810;9.150;2023-11-21T07:13:12;8.50;47.40
774;DHT22;370;48.810;9.150;2023-11-21T07:15:41;8.50;48.00
774;DHT22;370;48.810;9.150;2023-11-21T07:18:09;8.50;48.60
774;DHT22;370;48.810;9.150;2023-11-21T07:20:35;8.60;50.40
774;DHT22;370;48.810;9.150;2023-11-21T07:23:02;8.70;47.90
774;DHT22;370;48.810;9.150;2023-11-21T07:25:29;8.70;46.30
774;DHT22;370;48.810;9.150;2023-11-21T07:27:57;8.80;45.90
774;DHT22;370;48.810;9.150;2023-11-21T07:30:24;8.80;46.50
774;DHT22;370;48.810;9.150;2023-11-21T07:32:52;8.90;45.00
774;DHT22;370;48.810;9.150;2023-11-21T07:35:19;8.90;45.50
774;DHT22;370;48.810;9.150;2023-11-21T07:37:45;8.90;44.50
774;DHT22;370;48.810;9.150;2023-11-21T07:40:14;8.90;44.30
774;DHT22;370;48.810;9.150;2023-11-21T07:42:42;8.80;43.90
774;DHT22;370;48.810;9.150;2023-11-21T07:45:09;9.00;44.30
774;DHT22;370;48.810;9.150;2023-11-21T07:47:37;9.00;44.90
774;DHT22;370;48.810;9.150;2023-11-21T07:50:07;9.10;45.90
774;DHT22;370;48.810;9.150;2023-11-21T07:52:34;9.30;46.10
774;DHT22;370;48.810;9.150;2023-11-21T07:55:01;9.50;46.30
774;DHT22;370;48.810;9.150;2023-11-21T07:57:28;9.70;41.40
774;DHT22;370;48.810;9.150;2023-11-21T07:59:55;9.80;38.70
774;DHT22;370;48.810;9.150;2023-11-21T08:02:21;9.90;38.00
774;DHT22;370;48.810;9.150;2023-11-21T08:04:48;10.10;35.00
774;DHT22;370;48.810;9.150;2023-11-21T08:07:17;10.10;32.20
774;DHT22;370;48.810;9.150;2023-11-21T08:09:44;10.20;29.90
774;DHT22;370;48.810;9.150;2023-11-21T08:12:12;10.30;28.30
774;DHT22;370;48.810;9.150;2023-11-21T08:14:40;10.20;27.20
774;DHT22;370;48.810;9.150;2023-11-21T08:17:07;10.10;27.80
774;DHT22;370;48.810;9.150;2023-11-21T08:19:35;10.30;28.30
774;DHT22;370;48.810;9.150;2023-11-21T08:22:03;10.40;25.30
774;DHT22;370;48.810;9.150;2023-11-21T08:24:31;10.60;24.70
774;DHT22;370;48.810;9.150;2023-11-21T08:26:58;10.60;21.70
774;DHT22;370;48.810;9.150;2023-11-21T08:29:25;10.70;21.00
774;DHT22;370;48.810;9.150;2023-11-21T08:31:52;10.80;21.70
774;DHT22;370;48.810;9.150;2023-11-21T08:34:19;11.00;19.30
774;DHT22;370;48.810;9.150;2023-11-21T08:36:45;11.00;16.50
774;DHT22;370;48.810;9.150;2023-11-21T08:39:12;11.40;16.40
774;DHT22;370;48.810;9.150;2023-11-21T08:41:43;11.70;16.20
774;DHT22;370;48.810;9.150;2023-11-21T08:44:10;12.20;14.50
774;DHT22;370;48.810;9.150;2023-11-21T08:46:37;12.30;11.90
774;DHT22;370;48.810;9.150;2023-11-21T08:49:05;12.90;8.80
774;DHT22;370;48.810;9.150;2023-11-21T08:51:32;13.30;2.90
774;DHT22;370;48.810;9.150;2023-11-21T08:53:58;13.50;2.40
774;DHT22;370;48.810;9.150;2023-11-21T08:56:27;13.90;1.00
774;DHT22;370;48.810;9.150;2023-11-21T08:58:55;14.00;1.00
774;DHT22;370;48.810;9.150;2023-11-21T09:01:22;14.00;1.00
774;DHT22;370;48.810;9.150;2023-11-21T09:03:50;14.00;1.00
774;DHT22;370;48.810;9.150;2023-11-21T09:06:17;14.00;1.00
774;DHT22;370;48.810;9.150;2023-11-21T09:08:44;13.70;1.00
774;DHT22;370;48.810;9.150;2023-11-21T09:11:11;13.70;1.00
774;DHT22;370;48.810;9.150;2023-11-21T09:13:38;13.30;1.00
774;DHT22;370;48.810;9.150;2023-11-21T09:16:06;13.50;1.00
774;DHT22;370;48.810;9.150;2023-11-21T09:18:33;13.70;1.00
774;DHT22;370;48.810;9.150;2023-11-21T09:21:00;13.90;1.00
774;DHT22;370;48.810;9.150;2023-11-21T09:23:27;13.60;1.00
774;DHT22;370;48.810;9.150;2023-11-21T09:25:54;13.50;1.00
774;DHT22;370;48.810;9.150;2023-11-21T09:28:22;13.50;1.00
774;DHT22;370;48.810;9.150;2023-11-21T09:30:49;13.70;1.00
774;DHT22;370;48.810;9.150;2023-11-21T09:33:17;13.70;1.00
774;DHT22;370;48.810;9.150;2023-11-21T09:35:44;13.70;1.00
774;DHT22;370;48.810;9.150;2023-11-21T09:38:11;13.60;1.00
774;DHT22;370;48.810;9.150;2023-11-21T09:40:38;13.50;1.00
774;DHT22;370;48.810;9.150;2023-11-21T09:43:07;13.50;1.00
774;DHT22;370;48.810;9.150;2023-11-21T09:45:35;13.50;1.00
774;DHT22;370;48.810;9.150;2023-11-21T09:48:04;13.40;1.00
774;DHT22;370;48.810;9.150;2023-11-21T09:50:33;13.40;1.00
774;DHT22;370;48.810;9.150;2023-11-21T09:53:09;13.30;1.00
774;DHT22;370;48.810;9.150;2023-11-21T09:55:42;13.30;1.00
774;DHT22;370;48.810;9.150;2023-11-21T09:58:10;13.20;1.00
774;DHT22;370;48.810;9.150;2023-11-21T10:00:41;13.10;1.00
774;DHT22;370;48.810;9.150;2023-11-21T10:03:08;12.90;1.00
774;DHT22;370;48.810;9.150;2023-11-21T10:05:36;12.70;1.10
774;DHT22;370;48.810;9.150;2023-11-21T10:08:07;12.60;1.00
774;DHT22;370;48.810;9.150;2023-11-21T10:10:35;12.30;2.90
774;DHT22;370;48.810;9.150;2023-11-21T10:13:03;12.10;3.00
774;DHT22;370;48.810;9.150;2023-11-21T10:15:33;11.80;5.00
774;DHT22;370;48.810;9.150;2023-11-21T10:18:02;11.70;7.40
774;DHT22;370;48.810;9.150;2023-11-21T10:23:01;11.50;10.50
774;DHT22;370;48.810;9.150;2023-11-21T10:25:29;11.40;10.40
774;DHT22;370;48.810;9.150;2023-11-21T10:27:58;11.30;13.90
774;DHT22;370;48.810;9.150;2023-11-21T10:30:32;11.20;15.30
774;DHT22;370;48.810;9.150;2023-11-21T10:33:03;11.20;17.30
774;DHT22;370;48.810;9.150;2023-11-21T10:35:43;11.20;19.00
774;DHT22;370;48.810;9.150;2023-11-21T10:38:13;11.30;18.50
774;DHT22;370;48.810;9.150;2023-11-21T10:40:41;11.20;15.80
774;DHT22;370;48.810;9.150;2023-11-21T10:43:08;11.30;15.30
774;DHT22;370;48.810;9.150;2023-11-21T10:45:36;11.30;14.90
774;DHT22;370;48.810;9.150;2023-11-21T10:48:05;11.40;14.70
774;DHT22;370;48.810;9.150;2023-11-21T10:50:34;11.80;13.00
774;DHT22;370;48.810;9.150;2023-11-21T10:53:02;12.20;9.30
774;DHT22;370;48.810;9.150;2023-11-21T10:55:31;12.70;7.10
774;DHT22;370;48.810;9.150;2023-11-21T10:57:59;13.20;4.80
774;DHT22;370;48.810;9.150;2023-11-21T11:00:29;13.70;2.20
774;DHT22;370;48.810;9.150;2023-11-21T11:02:56;14.20;1.00
774;DHT22;370;48.810;9.150;2023-11-21T11:05:25;14.80;1.00
774;DHT22;370;48.810;9.150;2023-11-21T11:07:58;15.10;1.00
774;DHT22;370;48.810;9.150;2023-11-21T11:10:27;15.20;1.00
774;DHT22;370;48.810;9.150;2023-11-21T11:12:56;14.90;1.00
774;DHT22;370;48.810;9.150;2023-11-21T11:15:24;14.70;1.00
774;DHT22;370;48.810;9.150;2023-11-21T11:17:52;14.70;1.00
774;DHT22;370;48.810;9.150;2023-11-21T11:20:23;14.80;1.00
774;DHT22;370;48.810;9.150;2023-11-21T11:22:59;14.90;1.00
774;DHT22;370;48.810;9.150;2023-11-21T11:25:39;15.10;1.00
774;DHT22;370;48.810;9.150;2023-11-21T11:28:15;15.40;1.00
774;DHT22;370;48.810;9.150;2023-11-21T11:30:54;15.80;1.00
774;DHT22;370;48.810;9.150;2023-11-21T11:33:36;16.10;1.00
774;DHT22;370;48.810;9.150;2023-11-21T11:36:08;16.20;1.00
774;DHT22;370;48.810;9.150;2023-11-21T11:38:37;16.40;1.00
774;DHT22;370;48.810;9.150;2023-11-21T11:41:06;16.30;1.00
774;DHT22;370;48.810;9.150;2023-11-21T11:43:36;16.60;1.00
774;DHT22;370;48.810;9.150;2023-11-21T11:46:10;16.70;1.00
774;DHT22;370;48.810;9.150;2023-11-21T11:48:39;16.50;1.00
774;DHT22;370;48.810;9.150;2023-11-21T11:51:09;16.20;1.00
774;DHT22;370;48.810;9.150;2023-11-21T11:53:39;16.10;1.00
774;DHT22;370;48.810;9.150;2023-11-21T11:56:23;15.80;1.00
774;DHT22;370;48.810;9.150;2023-11-21T11:58:55;15.50;1.00
774;DHT22;370;48.810;9.150;2023-11-21T12:01:24;15.20;1.00
774;DHT22;370;48.810;9.150;2023-11-21T12:04:23;15.00;1.00
774;DHT22;370;48.810;9.150;2023-11-21T12:06:55;14.80;1.00
774;DHT22;370;48.810;9.150;2023-11-21T12:09:24;14.80;1.00
774;DHT22;370;48.810;9.150;2023-11-21T12:11:52;14.70;1.00
774;DHT22;370;48.810;9.150;2023-11-21T12:14:21;14.60;1.00
774;DHT22;370;48.810;9.150;2023-11-21T12:16:49;14.70;1.00
774;DHT22;370;48.810;9.150;2023-11-21T12:19:17;14.50;1.00
774;DHT22;370;48.810;9.150;2023-11-21T12:21:44;14.40;1.00
774;DHT22;370;48.810;9.150;2023-11-21T12:24:11;14.30;1.00
774;DHT22;370;48.810;9.150;2023-11-21T12:26:39;14.20;1.00
774;DHT22;370;48.810;9.150;2023-11-21T12:29:06;14.10;1.00
774;DHT22;370;48.810;9.150;2023-11-21T12:31:34;13.70;1.00
774;DHT22;370;48.810;9.150;2023-11-21T12:34:01;13.40;1.00
774;DHT22;370;48.810;9.150;2023-11-21T12:36:29;12.80;1.00
774;DHT22;370;48.810;9.150;2023-11-21T12:38:56;12.40;1.00
774;DHT22;370;48.810;9.150;2023-11-21T12:41:23;12.00;4.20
774;DHT22;370;48.810;9.150;2023-11-21T12:43:50;11.80;6.20
774;DHT22;370;48.810;9.150;2023-11-21T12:46:17;11.60;8.40
774;DHT22;370;48.810;9.150;2023-11-21T12:48:45;11.50;12.20
774;DHT22;370;48.810;9.150;2023-11-21T12:51:12;11.70;9.90
774;DHT22;370;48.810;9.150;2023-11-21T12:53:42;12.00;8.80
774;DHT22;370;48.810;9.150;2023-11-21T12:56:10;12.40;7.20
774;DHT22;370;48.810;9.150;2023-11-21T12:58:37;12.80;2.00
774;DHT22;370;48.810;9.150;2023-11-21T13:01:06;13.10;1.10
774;DHT22;370;48.810;9.150;2023-11-21T13:03:37;13.60;1.00
774;DHT22;370;48.810;9.150;2023-11-21T13:06:06;14.00;1.00
774;DHT22;370;48.810;9.150;2023-11-21T13:08:34;14.30;1.00
774;DHT22;370;48.810;9.150;2023-11-21T13:11:01;14.20;1.00
774;DHT22;370;48.810;9.150;2023-11-21T13:13:29;13.80;1.00
774;DHT22;370;48.810;9.150;2023-11-21T13:15:59;13.60;1.00
774;DHT22;370;48.810;9.150;2023-11-21T13:18:29;12.90;1.00
774;DHT22;370;48.810;9.150;2023-11-21T13:20:57;12.70;1.00
774;DHT22;370;48.810;9.150;2023-11-21T13:23:26;12.50;1.00
774;DHT22;370;48.810;9.150;2023-11-21T13:25:55;12.10;4.90
774;DHT22;370;48.810;9.150;2023-11-21T13:28:21;11.90;8.00
774;DHT22;370;48.810;9.150;2023-11-21T13:30:50;11.80;10.60
774;DHT22;370;48.810;9.150;2023-11-21T13:33:18;11.60;12.00
774;DHT22;370;48.810;9.150;2023-11-21T13:35:48;11.40;13.70
774;DHT22;370;48.810;9.150;2023-11-21T13:38:19;11.20;16.20
774;DHT22;370;48.810;9.150;2023-11-21T13:40:50;11.00;18.30
774;DHT22;370;48.810;9.150;2023-11-21T13:43:20;11.00;19.70
774;DHT22;370;48.810;9.150;2023-11-21T13:45:50;10.90;19.30
774;DHT22;370;48.810;9.150;2023-11-21T13:48:21;10.80;21.70
774;DHT22;370;48.810;9.150;2023-11-21T13:50:57;10.70;22.70
774;DHT22;370;48.810;9.150;2023-11-21T13:53:26;10.70;25.20
774;DHT22;370;48.810;9.150;2023-11-21T13:55:55;10.60;27.30
774;DHT22;370;48.810;9.150;2023-11-21T13:58:23;10.60;26.80
774;DHT22;370;48.810;9.150;2023-11-21T14:01:00;10.50;25.00
774;DHT22;370;48.810;9.150;2023-11-21T14:03:27;10.60;26.40
774;DHT22;370;48.810;9.150;2023-11-21T14:06:05;10.60;26.70
774;DHT22;370;48.810;9.150;2023-11-21T14:08:39;10.50;28.10
774;DHT22;370;48.810;9.150;2023-11-21T14:11:08;10.60;26.40
774;DHT22;370;48.810;9.150;2023-11-21T14:13:36;10.50;27.00
774;DHT22;370;48.810;9.150;2023-11-21T14:16:04;10.50;25.80
774;DHT22;370;48.810;9.150;2023-11-21T14:18:32;10.50;27.90
774;DHT22;370;48.810;9.150;2023-11-21T14:21:04;10.50;27.10
774;DHT22;370;48.810;9.150;2023-11-21T14:23:31;10.40;27.80
774;DHT22;370;48.810;9.150;2023-11-21T14:26:01;10.40;28.70
774;DHT22;370;48.810;9.150;2023-11-21T14:28:29;10.30;30.00
774;DHT22;370;48.810;9.150;2023-11-21T14:30:56;10.10;29.20
774;DHT22;370;48.810;9.150;2023-11-21T14:33:22;10.10;29.80
774;DHT22;370;48.810;9.150;2023-11-21T14:35:49;10.00;30.50
774;DHT22;370;48.810;9.150;2023-11-21T14:38:16;10.00;30.50
774;DHT22;370;48.810;9.150;2023-11-21T14:40:43;10.00;34.20
774;DHT22;370;48.810;9.150;2023-11-21T14:43:10;10.10;34.60
774;DHT22;370;48.810;9.150;2023-11-21T14:45:39;10.10;35.60
774;DHT22;370;48.810;9.150;2023-11-21T14:48:06;10.00;36.90
774;DHT22;370;48.810;9.150;2023-11-21T14:50:41;10.10;37.50
774;DHT22;370;48.810;9.150;2023-11-21T14:53:31;10.20;39.00
774;DHT22;370;48.810;9.150;2023-11-21T14:56:09;10.20;35.80
774;DHT22;370;48.810;9.150;2023-11-21T14:58:35;10.20;35.00
774;DHT22;370;48.810;9.150;2023-11-21T15:01:05;10.20;34.00
774;DHT22;370;48.810;9.150;2023-11-21T15:03:33;10.20;33.90
774;DHT22;370;48.810;9.150;2023-11-21T15:06:15;10.20;35.20
774;DHT22;370;48.810;9.150;2023-11-21T15:08:56;10.20;36.20
774;DHT22;370;48.810;9.150;2023-11-21T15:11:54;10.20;35.30
774;DHT22;370;48.810;9.150;2023-11-21T15:14:25;10.20;33.00
774;DHT22;370;48.810;9.150;2023-11-21T15:16:58;10.20;33.20
774;DHT22;370;48.810;9.150;2023-11-21T15:19:27;10.10;34.30
774;DHT22;370;48.810;9.150;2023-11-21T15:21:55;10.10;34.80
774;DHT22;370;48.810;9.150;2023-11-21T15:24:22;10.20;34.20
774;DHT22;370;48.810;9.150;2023-11-21T15:26:49;10.10;35.10
774;DHT22;370;48.810;9.150;2023-11-21T15:29:16;10.10;32.80
774;DHT22;370;48.810;9.150;2023-11-21T15:31:43;10.00;33.70
774;DHT22;370;48.810;9.150;2023-11-21T15:34:15;10.00;35.70
774;DHT22;370;48.810;9.150;2023-11-21T15:36:42;10.00;34.70
774;DHT22;370;48.810;9.150;2023-11-21T15:39:10;9.90;34.80
774;DHT22;370;48.810;9.150;2023-11-21T15:41:38;9.90;35.00
774;DHT22;370;48.810;9.150;2023-11-21T15:44:05;9.90;36.50
774;DHT22;370;48.810;9.150;2023-11-21T15:46:35;9.90;35.50
774;DHT22;370;48.810;9.150;2023-11-21T15:49:03;9.80;36.70
774;DHT22;370;48.810;9.150;2023-11-21T15:51:39;9.90;38.20
774;DHT22;370;48.810;9.150;2023-11-21T15:54:06;9.90;37.20
774;DHT22;370;48.810;9.150;2023-11-21T15:56:33;9.80;36.60
774;DHT22;370;48.810;9.150;2023-11-21T15:59:01;9.70;36.00
774;DHT22;370;48.810;9.150;2023-11-21T16:01:29;9.70;37.40
774;DHT22;370;48.810;9.150;2023-11-21T16:03:56;9.60;38.20
774;DHT22;370;48.810;9.150;2023-11-21T16:06:26;9.70;38.40
774;DHT22;370;48.810;9.150;2023-11-21T16:08:55;9.60;37.10
774;DHT22;370;48.810;9.150;2023-11-21T16:11:24;9.50;37.90
774;DHT22;370;48.810;9.150;2023-11-21T16:13:51;9.60;37.70
774;DHT22;370;48.810;9.150;2023-11-21T16:16:21;9.50;36.60
774;DHT22;370;48.810;9.150;2023-11-21T16:18:48;9.50;38.30
774;DHT22;370;48.810;9.150;2023-11-21T16:21:15;9.60;38.20
774;DHT22;370;48.810;9.150;2023-11-21T16:23:42;9.60;37.10
774;DHT22;370;48.810;9.150;2023-11-21T16:26:10;9.70;35.70
774;DHT22;370;48.810;9.150;2023-11-21T16:28:37;9.60;34.60
774;DHT22;370;48.810;9.150;2023-11-21T16:31:04;9.60;34.60
774;DHT22;370;48.810;9.150;2023-11-21T16:33:31;9.60;34.40
774;DHT22;370;48.810;9.150;2023-11-21T16:35:58;9.60;33.30
774;DHT22;370;48.810;9.150;2023-11-21T16:38:25;9.60;31.00
774;DHT22;370;48.810;9.150;2023-11-21T16:40:52;9.60;31.70
774;DHT22;370;48.810;9.150;2023-11-21T16:43:20;9.50;31.00
774;DHT22;370;48.810;9.150;2023-11-21T16:45:48;9.40;31.50
774;DHT22;370;48.810;9.150;2023-11-21T16:48:18;9.40;32.20
774;DHT22;370;48.810;9.150;2023-11-21T16:50:44;9.20;33.30
774;DHT22;370;48.810;9.150;2023-11-21T16:53:12;9.10;34.50
774;DHT22;370;48.810;9.150;2023-11-21T16:55:39;9.00;34.50
774;DHT22;370;48.810;9.150;2023-11-21T16:58:06;8.80;35.30